首页
METAR-TAF:

METAR-TAF

机场 :

萨格勒布机场

萨格勒布, 克罗地亚

纬度: 45-44N, 经度: 016-04E, 海拔: 106米

当前天气观测

该预报发布于33分钟前的00:30 UTC
风速6节,风向西转西南
温度 10°C
湿度 87%
气压 1024 hPa
能见度10公里或以上
1500米以下无云,无积雨云

METAR: LDZA 130030Z 24006KT CAVOK 10/08 Q1024 NOSIG

时间: 02:03 (01:03 UTC)

预报

该预报发布于1小时和38分钟前的23:25 UTC
预报有效从13日的 00点(UTC)到 14日的 00点(UTC)
风速4节,风向西南
能见度10公里或以上
1500米以下无云,无积雨云
成为
从 13日的 08点(UTC)到 13日的 10点(UTC)
风速8节,风向西南
成为
从 13日的 15点(UTC)到 13日的 17点(UTC)
风速6节,风向

TAF: LDZA 122325Z 1300/1400 23004KT CAVOK TX20/1312Z TN08/1306Z BECMG 1308/1310 23008KT BECMG 1315/1317 01006KT

超过4000个机场的气象观测和天气预报(METAR&TAF报告)。

可查询的气象台以黄色和红色小点在地图上表示。

将鼠标移到小点上方,可查看气象台名称。

然后点击查看天气观测和预报。

如需切换地图:点击带黑十字的绿色按钮放大地图;点击带横线的绿色按钮缩小地图;或者点击绿色箭头查看邻近地区的地图。


METAR-TAF: